sensor_id;sensor_type;location;lat;lon;timestamp;P1;durP1;ratioP1;P2;durP2;ratioP2
9799;SDS011;4939;52.00085300;4.17406100;2023-01-01T09:25:24;3.55;;;1.20;;
9799;SDS011;4939;52.00085300;4.17406100;2023-01-01T09:28:00;6.13;;;1.70;;
9799;SDS011;4939;52.00085300;4.17406100;2023-01-01T09:30:27;0.88;;;0.82;;
9799;SDS011;4939;52.00085300;4.17406100;2023-01-01T09:32:53;17.83;;;1.85;;
9799;SDS011;4939;52.00085300;4.17406100;2023-01-01T09:35:19;6.20;;;1.42;;
9799;SDS011;4939;52.00085300;4.17406100;2023-01-01T09:37:45;0.30;;;0.30;;
9799;SDS011;4939;52.00085300;4.17406100;2023-01-01T09:43:03;0.77;;;0.38;;
9799;SDS011;4939;52.00085300;4.17406100;2023-01-01T09:45:45;4.25;;;0.70;;
9799;SDS011;4939;52.00085300;4.17406100;2023-01-01T09:48:14;0.20;;;0.20;;
9799;SDS011;4939;52.00085300;4.17406100;2023-01-01T09:50:42;2.42;;;1.60;;
9799;SDS011;4939;52.00085300;4.17406100;2023-01-01T09:53:20;3.63;;;1.35;;
9799;SDS011;4939;52.00085300;4.17406100;2023-01-01T09:55:56;1.10;;;0.43;;
9799;SDS011;4939;52.00085300;4.17406100;2023-01-01T09:58:26;4.85;;;3.08;;
9799;SDS011;4939;52.00085300;4.17406100;2023-01-01T10:00:54;0.47;;;0.20;;
9799;SDS011;4939;52.00085300;4.17406100;2023-01-01T10:11:08;4.13;;;0.73;;
9799;SDS011;4939;52.00085300;4.17406100;2023-01-01T10:13:38;2.60;;;0.77;;
9799;SDS011;4939;52.00085300;4.17406100;2023-01-01T10:18:51;5.25;;;1.85;;
9799;SDS011;4939;52.00085300;4.17406100;2023-01-01T10:21:23;3.60;;;0.93;;
9799;SDS011;4939;52.00085300;4.17406100;2023-01-01T10:31:37;8.57;;;1.42;;
9799;SDS011;4939;52.00085300;4.17406100;2023-01-01T10:34:19;5.90;;;1.10;;
9799;SDS011;4939;52.00085300;4.17406100;2023-01-01T10:36:51;4.53;;;1.20;;
9799;SDS011;4939;52.00085300;4.17406100;2023-01-01T11:10:38;7.55;;;1.25;;
9799;SDS011;4939;52.00085300;4.17406100;2023-01-01T11:13:13;8.10;;;1.17;;
9799;SDS011;4939;52.00085300;4.17406100;2023-01-01T11:25:56;11.13;;;1.48;;
9799;SDS011;4939;52.00085300;4.17406100;2023-01-01T11:28:24;7.95;;;1.20;;
9799;SDS011;4939;52.00085300;4.17406100;2023-01-01T11:30:57;6.43;;;1.05;;
9799;SDS011;4939;52.00085300;4.17406100;2023-01-01T11:33:23;8.57;;;1.13;;
9799;SDS011;4939;52.00085300;4.17406100;2023-01-01T11:35:52;6.53;;;1.40;;
9799;SDS011;4939;52.00085300;4.17406100;2023-01-01T11:38:20;8.73;;;1.38;;
9799;SDS011;4939;52.00085300;4.17406100;2023-01-01T11:40:52;6.10;;;1.17;;
9799;SDS011;4939;52.00085300;4.17406100;2023-01-01T11:43:24;7.85;;;1.85;;
9799;SDS011;4939;52.00085300;4.17406100;2023-01-01T11:45:52;6.40;;;1.33;;
9799;SDS011;4939;52.00085300;4.17406100;2023-01-01T11:48:25;7.50;;;1.05;;
9799;SDS011;4939;52.00085300;4.17406100;2023-01-01T11:50:55;7.22;;;1.38;;
9799;SDS011;4939;52.00085300;4.17406100;2023-01-01T12:02:28;9.85;;;1.35;;
9799;SDS011;4939;52.00085300;4.17406100;2023-01-01T12:07:40;10.85;;;1.40;;
9799;SDS011;4939;52.00085300;4.17406100;2023-01-01T12:10:16;15.35;;;1.63;;
9799;SDS011;4939;52.00085300;4.17406100;2023-01-01T12:13:02;12.00;;;2.33;;
9799;SDS011;4939;52.00085300;4.17406100;2023-01-01T12:15:40;10.35;;;1.60;;
9799;SDS011;4939;52.00085300;4.17406100;2023-01-01T12:18:29;10.80;;;1.70;;
9799;SDS011;4939;52.00085300;4.17406100;2023-01-01T12:21:10;10.52;;;2.20;;
9799;SDS011;4939;52.00085300;4.17406100;2023-01-01T12:23:47;12.23;;;1.50;;
9799;SDS011;4939;52.00085300;4.17406100;2023-01-01T12:26:23;10.88;;;2.00;;
9799;SDS011;4939;52.00085300;4.17406100;2023-01-01T12:34:40;12.65;;;1.90;;
9799;SDS011;4939;52.00085300;4.17406100;2023-01-01T12:37:31;12.15;;;1.70;;
9799;SDS011;4939;52.00085300;4.17406100;2023-01-01T12:40:10;11.80;;;1.70;;
9799;SDS011;4939;52.00085300;4.17406100;2023-01-01T12:51:00;14.57;;;3.10;;
9799;SDS011;4939;52.00085300;4.17406100;2023-01-01T12:53:30;15.60;;;3.10;;
9799;SDS011;4939;52.00085300;4.17406100;2023-01-01T12:56:22;11.83;;;2.93;;
9799;SDS011;4939;52.00085300;4.17406100;2023-01-01T12:58:56;11.75;;;2.58;;
9799;SDS011;4939;52.00085300;4.17406100;2023-01-01T13:01:27;11.48;;;1.90;;
9799;SDS011;4939;52.00085300;4.17406100;2023-01-01T13:04:28;12.80;;;2.13;;
9799;SDS011;4939;52.00085300;4.17406100;2023-01-01T13:09:19;10.35;;;1.38;;
9799;SDS011;4939;52.00085300;4.17406100;2023-01-01T13:11:55;12.13;;;1.25;;
9799;SDS011;4939;52.00085300;4.17406100;2023-01-01T13:14:24;14.15;;;1.40;;
9799;SDS011;4939;52.00085300;4.17406100;2023-01-01T13:16:53;10.57;;;1.42;;
9799;SDS011;4939;52.00085300;4.17406100;2023-01-01T13:19:31;9.65;;;1.33;;
9799;SDS011;4939;52.00085300;4.17406100;2023-01-01T13:25:37;12.30;;;1.80;;
9799;SDS011;4939;52.00085300;4.17406100;2023-01-01T13:30:44;10.88;;;2.03;;
9799;SDS011;4939;52.00085300;4.17406100;2023-01-01T13:46:24;13.40;;;1.67;;
9799;SDS011;4939;52.00085300;4.17406100;2023-01-01T14:00:23;15.82;;;1.92;;
9799;SDS011;4939;52.00085300;4.17406100;2023-01-01T14:02:59;11.48;;;1.80;;
9799;SDS011;4939;52.00085300;4.17406100;2023-01-01T14:05:29;11.05;;;1.73;;
9799;SDS011;4939;52.00085300;4.17406100;2023-01-01T14:08:04;12.13;;;1.80;;
9799;SDS011;4939;52.00085300;4.17406100;2023-01-01T14:10:33;12.70;;;1.60;;
9799;SDS011;4939;52.00085300;4.17406100;2023-01-01T14:18:03;11.13;;;2.00;;
9799;SDS011;4939;52.00085300;4.17406100;2023-01-01T14:20:50;12.73;;;2.10;;
9799;SDS011;4939;52.00085300;4.17406100;2023-01-01T14:23:39;11.63;;;2.42;;
9799;SDS011;4939;52.00085300;4.17406100;2023-01-01T14:26:06;13.25;;;2.63;;
9799;SDS011;4939;52.00085300;4.17406100;2023-01-01T14:28:34;14.95;;;2.70;;
9799;SDS011;4939;52.00085300;4.17406100;2023-01-01T14:31:05;9.75;;;2.80;;
9799;SDS011;4939;52.00085300;4.17406100;2023-01-01T14:33:35;11.23;;;2.83;;
9799;SDS011;4939;52.00085300;4.17406100;2023-01-01T14:36:03;12.68;;;2.65;;
9799;SDS011;4939;52.00085300;4.17406100;2023-01-01T14:38:34;10.55;;;2.80;;
9799;SDS011;4939;52.00085300;4.17406100;2023-01-01T14:43:45;10.50;;;2.25;;
9799;SDS011;4939;52.00085300;4.17406100;2023-01-01T14:46:21;14.90;;;2.28;;
9799;SDS011;4939;52.00085300;4.17406100;2023-01-01T14:48:49;14.52;;;2.40;;
9799;SDS011;4939;52.00085300;4.17406100;2023-01-01T14:51:27;12.90;;;2.17;;
9799;SDS011;4939;52.00085300;4.17406100;2023-01-01T14:53:56;12.63;;;2.55;;
9799;SDS011;4939;52.00085300;4.17406100;2023-01-01T14:56:31;12.30;;;2.08;;
9799;SDS011;4939;52.00085300;4.17406100;2023-01-01T14:59:04;16.40;;;2.72;;
9799;SDS011;4939;52.00085300;4.17406100;2023-01-01T15:01:33;14.95;;;2.60;;
9799;SDS011;4939;52.00085300;4.17406100;2023-01-01T15:04:00;15.43;;;2.63;;
9799;SDS011;4939;52.00085300;4.17406100;2023-01-01T15:06:27;12.02;;;2.80;;
9799;SDS011;4939;52.00085300;4.17406100;2023-01-01T15:08:54;12.40;;;1.67;;
9799;SDS011;4939;52.00085300;4.17406100;2023-01-01T15:11:20;12.68;;;1.80;;
9799;SDS011;4939;52.00085300;4.17406100;2023-01-01T15:13:57;12.05;;;1.73;;
9799;SDS011;4939;52.00085300;4.17406100;2023-01-01T15:16:26;11.07;;;1.67;;
9799;SDS011;4939;52.00085300;4.17406100;2023-01-01T15:18:52;11.40;;;2.60;;
9799;SDS011;4939;52.00085300;4.17406100;2023-01-01T15:24:02;8.93;;;1.60;;
9799;SDS011;4939;52.00085300;4.17406100;2023-01-01T15:26:47;18.40;;;1.95;;
9799;SDS011;4939;52.00085300;4.17406100;2023-01-01T15:29:16;8.55;;;3.00;;
9799;SDS011;4939;52.00085300;4.17406100;2023-01-01T15:32:03;16.80;;;2.28;;
9799;SDS011;4939;52.00085300;4.17406100;2023-01-01T15:34:47;15.35;;;3.05;;
9799;SDS011;4939;52.00085300;4.17406100;2023-01-01T15:37:17;14.48;;;5.45;;
9799;SDS011;4939;52.00085300;4.17406100;2023-01-01T15:39:54;19.75;;;7.75;;
9799;SDS011;4939;52.00085300;4.17406100;2023-01-01T15:42:22;18.73;;;5.70;;
9799;SDS011;4939;52.00085300;4.17406100;2023-01-01T15:45:34;11.45;;;2.85;;
9799;SDS011;4939;52.00085300;4.17406100;2023-01-01T15:48:15;13.52;;;2.53;;
9799;SDS011;4939;52.00085300;4.17406100;2023-01-01T15:53:28;15.07;;;2.55;;
9799;SDS011;4939;52.00085300;4.17406100;2023-01-01T15:58:36;16.42;;;5.32;;
9799;SDS011;4939;52.00085300;4.17406100;2023-01-01T16:01:08;10.68;;;3.28;;
9799;SDS011;4939;52.00085300;4.17406100;2023-01-01T16:03:37;12.77;;;3.80;;
9799;SDS011;4939;52.00085300;4.17406100;2023-01-01T16:06:05;11.82;;;3.13;;
9799;SDS011;4939;52.00085300;4.17406100;2023-01-01T16:08:31;13.30;;;3.15;;
9799;SDS011;4939;52.00085300;4.17406100;2023-01-01T16:10:57;19.95;;;8.18;;
9799;SDS011;4939;52.00085300;4.17406100;2023-01-01T16:13:22;13.07;;;4.03;;
9799;SDS011;4939;52.00085300;4.17406100;2023-01-01T16:15:52;16.33;;;4.57;;
9799;SDS011;4939;52.00085300;4.17406100;2023-01-01T16:18:18;19.95;;;9.00;;
9799;SDS011;4939;52.00085300;4.17406100;2023-01-01T16:20:44;14.73;;;4.10;;
9799;SDS011;4939;52.00085300;4.17406100;2023-01-01T16:23:10;9.43;;;3.53;;
9799;SDS011;4939;52.00085300;4.17406100;2023-01-01T16:25:37;18.27;;;5.40;;
9799;SDS011;4939;52.00085300;4.17406100;2023-01-01T16:28:03;22.25;;;13.85;;
9799;SDS011;4939;52.00085300;4.17406100;2023-01-01T16:30:29;13.55;;;3.20;;
9799;SDS011;4939;52.00085300;4.17406100;2023-01-01T16:32:55;10.90;;;2.50;;
9799;SDS011;4939;52.00085300;4.17406100;2023-01-01T16:35:21;14.93;;;3.38;;
9799;SDS011;4939;52.00085300;4.17406100;2023-01-01T16:37:47;14.75;;;2.70;;
9799;SDS011;4939;52.00085300;4.17406100;2023-01-01T16:40:12;18.75;;;4.65;;
9799;SDS011;4939;52.00085300;4.17406100;2023-01-01T16:42:38;16.58;;;5.30;;
9799;SDS011;4939;52.00085300;4.17406100;2023-01-01T16:45:04;15.20;;;5.22;;
9799;SDS011;4939;52.00085300;4.17406100;2023-01-01T16:47:30;16.70;;;3.03;;
9799;SDS011;4939;52.00085300;4.17406100;2023-01-01T16:49:56;15.48;;;6.10;;
9799;SDS011;4939;52.00085300;4.17406100;2023-01-01T16:52:22;25.85;;;9.25;;
9799;SDS011;4939;52.00085300;4.17406100;2023-01-01T16:54:47;14.13;;;4.05;;
9799;SDS011;4939;52.00085300;4.17406100;2023-01-01T16:57:13;16.27;;;3.97;;
9799;SDS011;4939;52.00085300;4.17406100;2023-01-01T16:59:38;11.65;;;3.28;;
9799;SDS011;4939;52.00085300;4.17406100;2023-01-01T17:02:04;12.65;;;2.90;;
9799;SDS011;4939;52.00085300;4.17406100;2023-01-01T17:04:33;20.98;;;5.28;;
9799;SDS011;4939;52.00085300;4.17406100;2023-01-01T17:07:00;23.10;;;8.52;;
9799;SDS011;4939;52.00085300;4.17406100;2023-01-01T17:09:26;10.85;;;3.05;;
9799;SDS011;4939;52.00085300;4.17406100;2023-01-01T17:11:52;9.93;;;2.75;;
9799;SDS011;4939;52.00085300;4.17406100;2023-01-01T17:14:17;11.68;;;3.60;;
9799;SDS011;4939;52.00085300;4.17406100;2023-01-01T17:16:43;17.27;;;3.22;;
9799;SDS011;4939;52.00085300;4.17406100;2023-01-01T17:19:09;18.35;;;3.55;;
9799;SDS011;4939;52.00085300;4.17406100;2023-01-01T17:21:36;16.95;;;3.47;;
9799;SDS011;4939;52.00085300;4.17406100;2023-01-01T17:24:02;14.60;;;3.40;;
9799;SDS011;4939;52.00085300;4.17406100;2023-01-01T17:26:28;17.48;;;3.95;;
9799;SDS011;4939;52.00085300;4.17406100;2023-01-01T17:28:54;15.00;;;3.75;;
9799;SDS011;4939;52.00085300;4.17406100;2023-01-01T17:31:20;24.70;;;6.55;;
9799;SDS011;4939;52.00085300;4.17406100;2023-01-01T17:33:46;24.67;;;6.50;;
9799;SDS011;4939;52.00085300;4.17406100;2023-01-01T17:36:12;19.15;;;3.88;;
9799;SDS011;4939;52.00085300;4.17406100;2023-01-01T17:38:38;17.67;;;4.28;;
9799;SDS011;4939;52.00085300;4.17406100;2023-01-01T17:41:08;13.93;;;3.15;;
9799;SDS011;4939;52.00085300;4.17406100;2023-01-01T17:43:36;17.50;;;3.05;;
9799;SDS011;4939;52.00085300;4.17406100;2023-01-01T17:46:22;17.17;;;3.08;;
9799;SDS011;4939;52.00085300;4.17406100;2023-01-01T17:48:57;13.63;;;3.08;;
9799;SDS011;4939;52.00085300;4.17406100;2023-01-01T17:51:26;20.35;;;3.53;;
9799;SDS011;4939;52.00085300;4.17406100;2023-01-01T17:53:53;14.80;;;3.03;;
9799;SDS011;4939;52.00085300;4.17406100;2023-01-01T17:56:20;13.55;;;3.10;;
9799;SDS011;4939;52.00085300;4.17406100;2023-01-01T17:58:47;17.80;;;4.40;;
9799;SDS011;4939;52.00085300;4.17406100;2023-01-01T18:03:43;15.93;;;3.63;;
9799;SDS011;4939;52.00085300;4.17406100;2023-01-01T18:06:09;13.27;;;3.72;;
9799;SDS011;4939;52.00085300;4.17406100;2023-01-01T18:08:34;14.25;;;3.40;;
9799;SDS011;4939;52.00085300;4.17406100;2023-01-01T18:11:00;15.75;;;3.78;;
9799;SDS011;4939;52.00085300;4.17406100;2023-01-01T18:13:26;13.77;;;3.45;;
9799;SDS011;4939;52.00085300;4.17406100;2023-01-01T18:15:51;12.88;;;3.50;;
9799;SDS011;4939;52.00085300;4.17406100;2023-01-01T18:18:17;11.95;;;3.40;;
9799;SDS011;4939;52.00085300;4.17406100;2023-01-01T18:20:43;9.65;;;3.42;;
9799;SDS011;4939;52.00085300;4.17406100;2023-01-01T18:23:09;13.60;;;3.42;;
9799;SDS011;4939;52.00085300;4.17406100;2023-01-01T18:25:34;15.52;;;3.55;;
9799;SDS011;4939;52.00085300;4.17406100;2023-01-01T18:28:00;13.63;;;3.92;;
9799;SDS011;4939;52.00085300;4.17406100;2023-01-01T18:30:26;12.52;;;4.00;;
9799;SDS011;4939;52.00085300;4.17406100;2023-01-01T18:32:51;12.45;;;3.15;;
9799;SDS011;4939;52.00085300;4.17406100;2023-01-01T18:35:18;13.77;;;3.42;;
9799;SDS011;4939;52.00085300;4.17406100;2023-01-01T18:37:43;12.52;;;3.53;;
9799;SDS011;4939;52.00085300;4.17406100;2023-01-01T18:40:13;16.75;;;3.90;;
9799;SDS011;4939;52.00085300;4.17406100;2023-01-01T18:43:00;10.60;;;3.70;;
9799;SDS011;4939;52.00085300;4.17406100;2023-01-01T18:45:31;12.98;;;3.47;;
9799;SDS011;4939;52.00085300;4.17406100;2023-01-01T18:47:59;10.40;;;3.65;;
9799;SDS011;4939;52.00085300;4.17406100;2023-01-01T18:50:26;17.05;;;4.38;;
9799;SDS011;4939;52.00085300;4.17406100;2023-01-01T18:52:58;16.33;;;3.80;;
9799;SDS011;4939;52.00085300;4.17406100;2023-01-01T18:55:44;12.30;;;3.50;;
9799;SDS011;4939;52.00085300;4.17406100;2023-01-01T18:58:15;17.00;;;3.70;;
9799;SDS011;4939;52.00085300;4.17406100;2023-01-01T19:00:45;11.30;;;3.30;;
9799;SDS011;4939;52.00085300;4.17406100;2023-01-01T19:03:15;13.82;;;3.45;;
9799;SDS011;4939;52.00085300;4.17406100;2023-01-01T19:05:43;12.38;;;3.28;;
9799;SDS011;4939;52.00085300;4.17406100;2023-01-01T19:08:13;15.15;;;4.18;;
9799;SDS011;4939;52.00085300;4.17406100;2023-01-01T19:10:48;13.13;;;3.08;;
9799;SDS011;4939;52.00085300;4.17406100;2023-01-01T19:13:20;10.50;;;3.70;;
9799;SDS011;4939;52.00085300;4.17406100;2023-01-01T19:16:04;10.73;;;3.53;;
9799;SDS011;4939;52.00085300;4.17406100;2023-01-01T19:18:36;14.20;;;3.53;;
9799;SDS011;4939;52.00085300;4.17406100;2023-01-01T19:23:40;13.80;;;4.43;;
9799;SDS011;4939;52.00085300;4.17406100;2023-01-01T19:28:49;9.55;;;3.85;;
9799;SDS011;4939;52.00085300;4.17406100;2023-01-01T19:31:17;10.18;;;3.72;;
9799;SDS011;4939;52.00085300;4.17406100;2023-01-01T19:33:42;10.48;;;3.92;;
9799;SDS011;4939;52.00085300;4.17406100;2023-01-01T19:36:08;10.95;;;3.80;;
9799;SDS011;4939;52.00085300;4.17406100;2023-01-01T19:38:34;14.38;;;3.63;;
9799;SDS011;4939;52.00085300;4.17406100;2023-01-01T19:40:59;12.18;;;4.05;;
9799;SDS011;4939;52.00085300;4.17406100;2023-01-01T19:43:25;13.82;;;4.30;;
9799;SDS011;4939;52.00085300;4.17406100;2023-01-01T19:45:51;17.05;;;4.75;;
9799;SDS011;4939;52.00085300;4.17406100;2023-01-01T19:48:17;11.25;;;4.03;;
9799;SDS011;4939;52.00085300;4.17406100;2023-01-01T19:50:43;11.65;;;5.20;;
9799;SDS011;4939;52.00085300;4.17406100;2023-01-01T19:53:09;12.95;;;5.03;;
9799;SDS011;4939;52.00085300;4.17406100;2023-01-01T19:55:35;14.25;;;5.55;;
9799;SDS011;4939;52.00085300;4.17406100;2023-01-01T19:58:01;17.95;;;6.40;;
9799;SDS011;4939;52.00085300;4.17406100;2023-01-01T20:00:27;16.17;;;6.45;;
9799;SDS011;4939;52.00085300;4.17406100;2023-01-01T20:02:53;12.48;;;5.63;;
9799;SDS011;4939;52.00085300;4.17406100;2023-01-01T20:05:19;14.57;;;6.15;;
9799;SDS011;4939;52.00085300;4.17406100;2023-01-01T20:07:45;17.38;;;6.60;;
9799;SDS011;4939;52.00085300;4.17406100;2023-01-01T20:10:11;19.13;;;6.57;;
9799;SDS011;4939;52.00085300;4.17406100;2023-01-01T20:12:36;18.45;;;7.47;;
9799;SDS011;4939;52.00085300;4.17406100;2023-01-01T20:15:02;17.30;;;7.63;;
9799;SDS011;4939;52.00085300;4.17406100;2023-01-01T20:17:28;18.52;;;8.13;;
9799;SDS011;4939;52.00085300;4.17406100;2023-01-01T20:19:54;17.50;;;8.77;;
9799;SDS011;4939;52.00085300;4.17406100;2023-01-01T20:22:20;21.67;;;8.65;;
9799;SDS011;4939;52.00085300;4.17406100;2023-01-01T20:24:46;20.02;;;8.98;;
9799;SDS011;4939;52.00085300;4.17406100;2023-01-01T20:27:13;21.98;;;9.25;;
9799;SDS011;4939;52.00085300;4.17406100;2023-01-01T20:29:47;18.25;;;8.50;;
9799;SDS011;4939;52.00085300;4.17406100;2023-01-01T20:32:13;16.15;;;7.53;;
9799;SDS011;4939;52.00085300;4.17406100;2023-01-01T20:34:39;12.07;;;5.90;;
9799;SDS011;4939;52.00085300;4.17406100;2023-01-01T20:37:06;16.40;;;6.32;;
9799;SDS011;4939;52.00085300;4.17406100;2023-01-01T20:39:50;15.27;;;6.22;;
9799;SDS011;4939;52.00085300;4.17406100;2023-01-01T20:42:16;10.60;;;5.65;;
9799;SDS011;4939;52.00085300;4.17406100;2023-01-01T20:44:42;13.73;;;6.18;;
9799;SDS011;4939;52.00085300;4.17406100;2023-01-01T20:47:09;11.63;;;5.45;;
9799;SDS011;4939;52.00085300;4.17406100;2023-01-01T20:49:35;12.27;;;5.72;;
9799;SDS011;4939;52.00085300;4.17406100;2023-01-01T20:52:01;13.40;;;5.43;;
9799;SDS011;4939;52.00085300;4.17406100;2023-01-01T20:54:27;10.10;;;5.68;;
9799;SDS011;4939;52.00085300;4.17406100;2023-01-01T20:56:55;11.32;;;6.22;;
9799;SDS011;4939;52.00085300;4.17406100;2023-01-01T20:59:20;13.75;;;6.63;;
9799;SDS011;4939;52.00085300;4.17406100;2023-01-01T21:01:47;14.35;;;6.80;;
9799;SDS011;4939;52.00085300;4.17406100;2023-01-01T21:04:13;15.35;;;7.50;;
9799;SDS011;4939;52.00085300;4.17406100;2023-01-01T21:06:39;17.58;;;7.03;;
9799;SDS011;4939;52.00085300;4.17406100;2023-01-01T21:09:10;18.33;;;7.50;;
9799;SDS011;4939;52.00085300;4.17406100;2023-01-01T21:11:36;16.60;;;7.70;;
9799;SDS011;4939;52.00085300;4.17406100;2023-01-01T21:14:01;16.20;;;6.97;;
9799;SDS011;4939;52.00085300;4.17406100;2023-01-01T21:16:30;15.38;;;7.65;;
9799;SDS011;4939;52.00085300;4.17406100;2023-01-01T21:18:59;18.00;;;7.30;;
9799;SDS011;4939;52.00085300;4.17406100;2023-01-01T21:21:28;16.42;;;7.13;;
9799;SDS011;4939;52.00085300;4.17406100;2023-01-01T21:23:58;18.75;;;6.60;;
9799;SDS011;4939;52.00085300;4.17406100;2023-01-01T21:26:29;15.23;;;6.70;;
9799;SDS011;4939;52.00085300;4.17406100;2023-01-01T21:28:58;16.33;;;6.57;;
9799;SDS011;4939;52.00085300;4.17406100;2023-01-01T21:31:25;12.27;;;6.00;;
9799;SDS011;4939;52.00085300;4.17406100;2023-01-01T21:34:22;15.73;;;6.35;;
9799;SDS011;4939;52.00085300;4.17406100;2023-01-01T21:36:59;11.90;;;5.50;;
9799;SDS011;4939;52.00085300;4.17406100;2023-01-01T21:39:30;13.02;;;5.30;;
9799;SDS011;4939;52.00085300;4.17406100;2023-01-01T21:42:13;12.23;;;5.25;;
9799;SDS011;4939;52.00085300;4.17406100;2023-01-01T21:44:47;10.68;;;4.97;;
9799;SDS011;4939;52.00085300;4.17406100;2023-01-01T21:47:21;18.85;;;5.90;;
9799;SDS011;4939;52.00085300;4.17406100;2023-01-01T21:49:48;24.27;;;7.25;;
9799;SDS011;4939;52.00085300;4.17406100;2023-01-01T21:52:17;18.85;;;6.50;;
9799;SDS011;4939;52.00085300;4.17406100;2023-01-01T21:54:46;13.98;;;5.32;;
9799;SDS011;4939;52.00085300;4.17406100;2023-01-01T21:57:17;13.70;;;5.22;;
9799;SDS011;4939;52.00085300;4.17406100;2023-01-01T21:59:47;15.35;;;5.30;;
9799;SDS011;4939;52.00085300;4.17406100;2023-01-01T22:05:00;11.20;;;4.70;;
9799;SDS011;4939;52.00085300;4.17406100;2023-01-01T22:07:38;16.17;;;4.70;;
9799;SDS011;4939;52.00085300;4.17406100;2023-01-01T22:13:07;12.07;;;4.57;;
9799;SDS011;4939;52.00085300;4.17406100;2023-01-01T22:15:39;10.35;;;4.30;;
9799;SDS011;4939;52.00085300;4.17406100;2023-01-01T22:18:16;9.07;;;4.68;;
9799;SDS011;4939;52.00085300;4.17406100;2023-01-01T22:20:48;11.23;;;4.93;;
9799;SDS011;4939;52.00085300;4.17406100;2023-01-01T22:25:58;14.85;;;5.30;;
9799;SDS011;4939;52.00085300;4.17406100;2023-01-01T22:28:29;12.43;;;5.38;;
9799;SDS011;4939;52.00085300;4.17406100;2023-01-01T22:31:01;14.85;;;5.95;;
9799;SDS011;4939;52.00085300;4.17406100;2023-01-01T22:38:51;16.58;;;6.68;;
9799;SDS011;4939;52.00085300;4.17406100;2023-01-01T22:41:27;18.13;;;6.30;;
9799;SDS011;4939;52.00085300;4.17406100;2023-01-01T22:43:58;14.93;;;5.80;;
9799;SDS011;4939;52.00085300;4.17406100;2023-01-01T22:46:28;15.63;;;5.97;;
9799;SDS011;4939;52.00085300;4.17406100;2023-01-01T22:49:03;17.20;;;6.93;;
9799;SDS011;4939;52.00085300;4.17406100;2023-01-01T22:51:39;18.33;;;6.47;;
9799;SDS011;4939;52.00085300;4.17406100;2023-01-01T22:54:06;18.08;;;6.43;;
9799;SDS011;4939;52.00085300;4.17406100;2023-01-01T22:56:32;17.70;;;6.38;;
9799;SDS011;4939;52.00085300;4.17406100;2023-01-01T22:58:57;16.98;;;6.30;;
9799;SDS011;4939;52.00085300;4.17406100;2023-01-01T23:01:23;16.15;;;5.93;;
9799;SDS011;4939;52.00085300;4.17406100;2023-01-01T23:03:49;15.65;;;6.35;;
9799;SDS011;4939;52.00085300;4.17406100;2023-01-01T23:06:14;16.83;;;6.22;;
9799;SDS011;4939;52.00085300;4.17406100;2023-01-01T23:08:41;13.52;;;6.28;;
9799;SDS011;4939;52.00085300;4.17406100;2023-01-01T23:11:06;14.38;;;5.30;;
9799;SDS011;4939;52.00085300;4.17406100;2023-01-01T23:13:32;20.90;;;6.30;;
9799;SDS011;4939;52.00085300;4.17406100;2023-01-01T23:16:16;11.00;;;6.25;;
9799;SDS011;4939;52.00085300;4.17406100;2023-01-01T23:18:42;12.65;;;6.05;;
9799;SDS011;4939;52.00085300;4.17406100;2023-01-01T23:21:09;15.18;;;5.82;;
9799;SDS011;4939;52.00085300;4.17406100;2023-01-01T23:23:38;15.43;;;5.45;;
9799;SDS011;4939;52.00085300;4.17406100;2023-01-01T23:26:05;14.13;;;5.88;;
9799;SDS011;4939;52.00085300;4.17406100;2023-01-01T23:28:32;17.80;;;5.57;;
9799;SDS011;4939;52.00085300;4.17406100;2023-01-01T23:30:59;13.82;;;5.47;;
9799;SDS011;4939;52.00085300;4.17406100;2023-01-01T23:33:27;15.55;;;5.47;;
9799;SDS011;4939;52.00085300;4.17406100;2023-01-01T23:35:53;13.30;;;5.18;;
9799;SDS011;4939;52.00085300;4.17406100;2023-01-01T23:38:19;11.77;;;5.15;;
9799;SDS011;4939;52.00085300;4.17406100;2023-01-01T23:40:46;15.55;;;5.07;;
9799;SDS011;4939;52.00085300;4.17406100;2023-01-01T23:43:11;15.48;;;5.72;;
9799;SDS011;4939;52.00085300;4.17406100;2023-01-01T23:45:37;13.43;;;5.57;;
9799;SDS011;4939;52.00085300;4.17406100;2023-01-01T23:48:03;14.13;;;5.93;;
9799;SDS011;4939;52.00085300;4.17406100;2023-01-01T23:50:30;13.60;;;5.97;;
9799;SDS011;4939;52.00085300;4.17406100;2023-01-01T23:52:56;14.13;;;5.43;;
9799;SDS011;4939;52.00085300;4.17406100;2023-01-01T23:55:22;13.90;;;5.30;;
9799;SDS011;4939;52.00085300;4.17406100;2023-01-01T23:57:47;11.45;;;5.57;;
